• Join FlightAware (Why Join?)
  • Login
  • US Flag 
11:04AM EDT


 

Airport Tracker/Info


-or-


 

Live Flight TrackerFlight Track Log ✈ CPA421 ✈ 02-Aug-2013 ✈ RCTP / TPE - VHHH / HKG

Flight Track Log - Related Links

Times and Time Zones

All times are in EDT time to prevent confusion due to time zone crossing. See the CPA421 flight status page for this flight to view local times or setup timezone preferences in your user account.

Time Position Orientation Groundspeed Altitude Reporting Facility
EDT Latitude Longitude Course Direction KTS MPH feet Rate Location/Type
12:44AM 25.0690 121.2340 61° Northeast 126 145 200  Level FlightAware
12:44AM 25.0800 121.2480 49° Northeast 168 193 500 1,440 Climbing FlightAware
12:44AM 25.0890 121.2600 50° Northeast 166 191 1,200 1,740 Climbing FlightAware
12:45AM 25.1020 121.2770 50° Northeast 188 216 1,800 1,380 Climbing FlightAware
12:45AM 25.1140 121.2920 49° Northeast 216 249 2,200 1,260 Climbing FlightAware
12:45AM 25.1220 121.3020 49° Northeast 225 259 2,500 1,680 Climbing FlightAware
12:45AM 25.1290 121.3080 38° Northeast 225 259 2,800 2,400 Climbing FlightAware
12:46AM 25.1370 121.3120 24° Northeast 226 260 3,100 2,220 Climbing FlightAware
12:46AM 25.1440 121.3130 North 227 261 3,400 2,040 Climbing FlightAware
12:46AM 25.1660 121.3040 340° North 243 280 4,100 1,860 Climbing FlightAware
12:46AM 25.1720 121.2960 310° West 249 287 4,300 1,260 Climbing FlightAware
12:46AM 25.1770 121.2840 295° West 260 299 4,500 1,020 Climbing FlightAware
12:47AM 25.1780 121.2760 278° West 268 308 4,600 1,860 Climbing FlightAware
12:47AM 25.1670 121.2450 249° West 280 322 5,400 2,340 Climbing FlightAware
12:47AM 25.1550 121.2300 229° Southwest 280 322 6,100 2,700 Climbing FlightAware
12:47AM 25.1390 121.2080 231° Southwest 280 322 7,000 2,280 Climbing FlightAware
12:48AM 25.1260 121.1890 233° Southwest 285 328 7,500 2,280 Climbing FlightAware
12:48AM 25.1130 121.1670 237° Southwest 281 323 8,300 2,340 Climbing FlightAware
12:48AM 25.0990 121.1430 237° Southwest 280 322 9,000 1,980 Climbing FlightAware
12:49AM 25.0820 121.1120 239° Southwest 285 328 9,800 1,500 Climbing FlightAware
12:49AM 25.0600 121.0730 238° Southwest 304 350 10,400 840 Climbing FlightAware
12:50AM 25.0290 121.0190 238° Southwest 336 387 10,800 1,200 Climbing FlightAware
12:51AM 24.9990 120.9670 238° Southwest 342 394 11,900 2,040 Climbing FlightAware
12:51AM 24.9720 120.9210 237° Southwest 339 390 13,100 1,980 Climbing FlightAware
12:52AM 24.9400 120.8670 237° Southwest 345 397 14,200 1,620 Climbing FlightAware
12:52AM 24.9100 120.8150 238° Southwest 353 406 15,100 1,560 Climbing FlightAware
12:53AM 24.8780 120.7620 236° Southwest 360 414 16,100 1,680 Climbing FlightAware
12:53AM 24.8470 120.7090 237° Southwest 363 418 17,100 1,740 Climbing FlightAware
12:54AM 24.8140 120.6520 237° Southwest 372 428 18,100 1,560 Climbing FlightAware
12:55AM 24.7800 120.5950 237° Southwest 382 440 19,000 1,500 Climbing FlightAware
12:55AM 24.7450 120.5340 238° Southwest 390 449 19,900 1,500 Climbing FlightAware
12:56AM 24.7210 120.5050 228° Southwest 390 449 20,400 1,500 Climbing FlightAware
12:56AM 24.6760 120.4660 218° Southwest 393 452 21,200 1,620 Climbing FlightAware
12:57AM 24.6210 120.4260 213° Southwest 393 452 22,300 1,860 Climbing FlightAware
12:57AM 24.5730 120.3900 214° Southwest 392 451 23,400 1,920 Climbing FlightAware
12:58AM 24.5120 120.3440 214° Southwest 389 448 24,700 1,740 Climbing FlightAware
12:58AM 24.4690 120.3110 215° Southwest 392 451 25,500 1,260 Climbing FlightAware
12:59AM 24.4190 120.2720 215° Southwest 402 463 26,100 1,020 Climbing FlightAware
12:59AM 24.3800 120.2420 215° Southwest 409 471 26,500 1,020 Climbing FlightAware
01:00AM 24.3120 120.1890 215° Southwest 421 484 27,300 960 Climbing FlightAware
01:01AM 24.2660 120.1530 216° Southwest 429 494 27,700 900 Climbing FlightAware
01:01AM 24.2090 120.1090 215° Southwest 437 503 28,300 1,200 Climbing FlightAware
01:02AM 24.1490 120.0630 215° Southwest 441 507 29,100 1,140 Climbing FlightAware
01:02AM 24.0890 120.0160 216° Southwest 446 513 29,700 900 Climbing FlightAware
01:03AM 24.0310 119.9720 215° Southwest 452 520 30,200 900 Climbing FlightAware
01:04AM 23.9670 119.9230 215° Southwest 458 527 30,800 1,020 Climbing FlightAware
01:04AM 23.8940 119.8660 216° Southwest 466 536 31,500 1,080 Climbing FlightAware
01:05AM 23.8410 119.8250 215° Southwest 467 537 32,100 1,140 Climbing FlightAware
01:05AM 23.7740 119.7740 215° Southwest 472 543 32,800 1,080 Climbing FlightAware
01:06AM 23.7290 119.7390 215° Southwest 474 545 33,300 1,020 Climbing FlightAware
01:06AM 23.6620 119.6880 215° Southwest 479 551 33,900 1,080 Climbing FlightAware
01:07AM 23.6060 119.6400 218° Southwest 481 554 34,600 1,260 Climbing FlightAware
01:08AM 23.5590 119.5740 232° Southwest 477 549 35,400 1,140 Climbing FlightAware
01:08AM 23.5160 119.5000 238° Southwest 476 548 36,000 420 Climbing FlightAware
01:09AM 23.4690 119.4190 238° Southwest 476 548 36,000  Level FlightAware
01:09AM 23.4310 119.3540 238° Southwest 478 550 36,000  Level FlightAware
01:10AM 23.3870 119.2770 238° Southwest 480 552 36,000  Level FlightAware
01:11AM 23.3280 119.1760 238° Southwest 482 555 36,000  Level FlightAware
01:11AM 23.2900 119.1110 238° Southwest 484 557 36,000  Level FlightAware
01:12AM 23.2460 119.0360 237° Southwest 486 559 36,000  Level FlightAware
01:12AM 23.2050 118.9670 237° Southwest 487 560 36,000  Level FlightAware
01:13AM 23.1650 118.8980 238° Southwest 487 560 36,000  Level FlightAware
01:14AM 23.1230 118.8270 237° Southwest 486 559 36,000  Level FlightAware
01:14AM 23.0810 118.7560 237° Southwest 486 559 36,000  Level FlightAware
01:15AM 23.0490 118.7000 238° Southwest 486 559 36,000  Level FlightAware
01:15AM 22.9920 118.6030 237° Southwest 486 559 36,000  Level FlightAware
01:16AM 22.9530 118.5380 237° Southwest 485 558 36,000  Level FlightAware
01:17AM 22.9070 118.4610 237° Southwest 487 560 36,000  Level FlightAware
01:17AM 22.8650 118.3900 237° Southwest 487 560 36,000  Level FlightAware
01:18AM 22.8210 118.3160 237° Southwest 486 559 36,000  Level FlightAware
01:18AM 22.7810 118.2500 237° Southwest 484 557 36,000  Level FlightAware
01:19AM 22.7420 118.1850 237° Southwest 484 557 36,000  Level FlightAware
01:19AM 22.6930 118.1030 237° Southwest 484 557 36,000  Level FlightAware
01:20AM 22.6500 118.0310 237° Southwest 484 557 36,000  Level FlightAware
01:21AM 22.6120 117.9680 237° Southwest 481 554 36,000  Level FlightAware
01:21AM 22.5710 117.8990 237° Southwest 480 552 36,000  Level FlightAware
01:22AM 22.5330 117.8340 238° Southwest 478 550 36,000  Level FlightAware
01:22AM 22.4830 117.7510 237° Southwest 476 548 36,000  Level FlightAware
01:23AM 22.4430 117.6830 238° Southwest 474 545 36,000  Level FlightAware
01:24AM 22.3990 117.6100 237° Southwest 472 543 36,000  Level FlightAware
01:24AM 22.3570 117.5380 238° Southwest 472 543 36,000  Level FlightAware
01:24AM 22.3460 117.5130 245° Southwest 475 547 36,000  Level FlightAware
01:25AM 22.3250 117.4360 254° West 478 550 36,000  Level FlightAware
01:26AM 22.3080 117.3650 256° West 478 550 36,000  Level FlightAware
01:26AM 22.2900 117.2940 255° West 478 550 36,000 -1,080 Level FlightAware
01:27AM 22.3270 117.1630 287° West 450 518 34,700 -1,920 Descending FlightAware
01:27AM 22.3260 117.0940 269° West 443 510 33,800 -1,680 Descending FlightAware
01:28AM 22.3240 117.0140 268° West 436 502 32,800 -1,800 Descending FlightAware
01:29AM 22.3230 116.9360 269° West 430 495 31,700 -1,200 Descending FlightAware
01:29AM 22.3200 116.8480 268° West 425 489 31,200 -1,200 Descending FlightAware
01:30AM 22.3180 116.7480 269° West 416 479 29,900 -1,380 Descending FlightAware
01:31AM 22.3160 116.6710 268° West 413 475 29,200 -2,220 Descending FlightAware
01:31AM 22.3150 116.5970 269° West 398 458 27,300 -2,040 Descending FlightAware
01:32AM 22.3130 116.5230 268° West 397 457 26,800 -420 Descending FlightAware
01:33AM 22.3110 116.4620 268° West 397 457 26,800  Level FlightAware
01:33AM 22.3090 116.4010 268° West 397 457 26,800  Level FlightAware
01:34AM 22.3070 116.3400 268° West 397 457 26,800  Level FlightAware
01:34AM 22.3050 116.2800 268° West 397 457 26,800 -720 Level FlightAware
01:35AM 22.3050 116.1630 270° West 393 452 26,000 -720 Descending FlightAware
01:36AM 22.3030 116.0970 268° West 393 452 26,000  Level FlightAware
01:36AM 22.3020 116.0320 269° West 392 451 26,000  Level FlightAware
01:37AM 22.3000 115.9690 268° West 392 451 26,000  Level FlightAware
01:37AM 22.2980 115.9090 268° West 392 451 26,000  Level FlightAware
01:38AM 22.2960 115.8490 268° West 392 451 26,000  Level FlightAware
01:39AM 22.2940 115.7880 268° West 392 451 26,000  Level FlightAware
01:39AM 22.2920 115.7280 268° West 392 451 26,000  Level FlightAware
01:40AM 22.2900 115.6660 268° West 392 451 26,000 -600 Level FlightAware
01:40AM 22.2890 115.5440 270° West 356 410 25,300 -660 Descending FlightAware
01:41AM 22.2860 115.4630 268° West 344 396 25,100 -180 Descending FlightAware
01:42AM 22.2850 115.4100 269° West 344 396 25,100  Level FlightAware
01:42AM 22.2830 115.3560 268° West 344 396 25,100  Level FlightAware
01:43AM 22.2810 115.3040 268° West 344 396 25,100  Level FlightAware
01:44AM 22.2790 115.2510 268° West 344 396 25,100  Level FlightAware
01:44AM 22.2780 115.1980 269° West 344 396 25,100 -600 Level FlightAware
01:47AM 22.2839 114.9832 272° West  Level Estimated
01:48AM 22.2863 114.8912 272° West  Level Estimated
01:48AM 22.3370 114.8630 272° West 345 397 22,700  Level FlightAware
01:48AM 22.3510 114.8680 18° North 338 389 22,700 -300 Level FlightAware
01:48AM 22.3660 114.8820 41° Northeast 329 379 22,600 -600 Descending FlightAware
01:48AM 22.3740 114.8940 54° Northeast 321 369 22,500 -600 Descending FlightAware
01:48AM 22.3780 114.9110 76° East 313 360 22,400 -420 Descending FlightAware
01:49AM 22.3790 114.9600 89° East 309 356 22,200 -180 Descending FlightAware
01:49AM 22.3820 115.0100 86° East 309 356 22,200  Level FlightAware
01:50AM 22.3840 115.0570 87° East 309 356 22,200  Level FlightAware
01:51AM 22.3860 115.1050 87° East 309 356 22,200 -1,200 Level FlightAware
01:51AM 22.3710 115.1530 109° East 289 333 21,100 -2,100 Descending FlightAware
01:51AM 22.3540 115.1670 143° Southeast 280 322 21,000 -180 Descending FlightAware
01:52AM 22.3200 115.1820 158° South 278 320 21,000  Level FlightAware
01:52AM 22.2830 115.1980 158° South 278 320 21,000  Level FlightAware
01:53AM 22.2470 115.2140 158° South 278 320 21,000 -780 Level FlightAware
01:53AM 22.3180 115.0530 296° West 319 367 20,200 -1,440 Descending FlightAware
01:54AM 22.3540 115.0200 320° Northwest 314 361 19,600 -1,380 Descending FlightAware
01:55AM 22.3960 114.9820 320° Northwest 321 369 18,600 -1,320 Descending FlightAware
01:55AM 22.4210 114.9350 300° West 306 352 18,000 -600 Descending FlightAware
01:56AM 22.4120 114.8940 257° West 290 334 18,000  Level FlightAware
01:56AM 22.3880 114.8650 228° Southwest 274 315 18,000  Level FlightAware
01:57AM 22.3400 114.8310 213° Southwest 279 321 18,000  Level FlightAware
01:58AM 22.2970 114.8030 211° Southwest 274 315 18,000  Level FlightAware
01:58AM 22.2690 114.7760 222° Southwest 286 329 18,000  Level FlightAware
01:59AM 22.2620 114.7130 263° West 304 350 18,000  Level FlightAware
01:59AM 22.2600 114.6610 268° West 304 350 18,000  Level FlightAware
02:00AM 22.2590 114.6150 269° West 304 350 18,000  Level FlightAware
02:01AM 22.2570 114.5680 267° West 304 350 18,000 -1,260 Level FlightAware
02:01AM 22.2550 114.4970 268° West 300 345 16,600 -1,800 Descending FlightAware
02:02AM 22.2530 114.4410 268° West 302 348 16,000 -1,140 Descending FlightAware
02:02AM 22.2510 114.3880 268° West 299 344 15,300 -1,200 Descending FlightAware
02:03AM 22.2490 114.3280 268° West 296 341 14,500 -1,200 Descending FlightAware
02:04AM 22.2410 114.2760 261° West 282 325 13,800 -1,140 Descending FlightAware
02:04AM 22.2270 114.2360 249° West 278 320 13,200 -1,080 Descending FlightAware
02:05AM 22.2030 114.1750 247° West 274 315 12,300 -1,200 Descending FlightAware
02:06AM 22.1880 114.1340 248° West 274 315 11,600 -1,140 Descending FlightAware
02:06AM 22.1750 114.1000 248° West 273 314 11,000 -1,440 Descending FlightAware
02:07AM 22.1650 114.0440 259° West 289 333 10,100 -1,380 Descending FlightAware
02:07AM 22.1710 113.9930 277° West 289 333 9,400 -780 Descending FlightAware
02:08AM 22.1850 113.9690 302° West 305 351 9,300 -300 Descending FlightAware
02:08AM 22.2060 113.9540 327° Northwest 313 360 9,200 -900 Descending FlightAware
02:09AM 22.2590 113.9730 18° North 252 290 8,500 -1,200 Descending FlightAware
02:09AM 22.2630 113.9990 81° East 219 252 8,100 -960 Descending FlightAware
02:09AM 22.2590 114.0070 118° Southeast 212 244 8,000 -900 Descending FlightAware
02:09AM 22.2510 114.0150 137° Southeast 210 242 7,800 -600 Descending FlightAware
02:09AM 22.2430 114.0180 161° South 213 245 7,800 -420 Level FlightAware
02:10AM 22.2350 114.0180 180° South 219 252 7,700 -600 Descending FlightAware
02:10AM 22.2220 114.0140 196° South 222 255 7,600 -600 Descending FlightAware
02:10AM 22.2050 114.0090 195° South 221 254 7,400 -600 Descending FlightAware
02:10AM 22.1820 114.0020 196° South 223 257 7,200 -480 Descending FlightAware
02:11AM 22.1680 113.9910 216° Southwest 246 283 7,100 -540 Descending FlightAware
02:11AM 22.1620 113.9820 234° Southwest 259 298 7,000 -600 Descending FlightAware
02:11AM 22.1570 113.9670 250° West 268 308 6,900 -360 Descending FlightAware
02:11AM 22.1560 113.9590 262° West 275 316 6,900 -420 Level FlightAware
02:11AM 22.1560 113.9450 270° West 283 326 6,800 -720 Descending FlightAware
02:12AM 22.1590 113.9160 276° West 288 331 6,400 -780 Descending FlightAware
02:12AM 22.1620 113.8670 274° West 254 292 6,100 -600 Descending FlightAware
02:13AM 22.1630 113.8590 278° West 251 289 6,000 -540 Descending FlightAware
02:13AM 22.1670 113.8270 278° West 228 262 5,800 -1,200 Descending FlightAware
02:13AM 22.1700 113.8040 278° West 230 265 5,300 -1,080 Descending FlightAware
02:13AM 22.1720 113.7930 281° West 229 264 5,100 -660 Descending FlightAware
02:14AM 22.1720 113.7840 270° West 229 264 5,000 -1,200 Descending FlightAware
02:14AM 22.1730 113.7540 272° West 229 264 4,600 -1,320 Descending FlightAware
02:14AM 22.1750 113.7350 276° West 228 262 4,300 -1,200 Descending FlightAware
02:14AM 22.1790 113.7250 293° West 231 266 4,100 -1,140 Descending FlightAware
02:15AM 22.1890 113.7150 317° Northwest 228 262 3,900 -1,140 Descending FlightAware
02:15AM 22.1980 113.7100 333° Northwest 234 269 3,700 -1,200 Descending FlightAware
02:15AM 22.2150 113.7020 336° Northwest 236 272 3,400 -960 Descending FlightAware
02:15AM 22.2230 113.7000 347° North 231 266 3,300 -660 Descending FlightAware
02:15AM 22.2420 113.7070 19° North 191 220 3,100 -480 Descending FlightAware
02:16AM 22.2500 113.7160 46° Northeast 177 204 3,000 -420 Descending FlightAware
02:16AM 22.2560 113.7280 62° Northeast 173 199 2,900 -420 Descending FlightAware
02:16AM 22.2600 113.7410 72° East 168 193 2,800 -360 Descending FlightAware
02:17AM 22.2640 113.7540 72° East 153 176 2,700 -180 Descending FlightAware
02:17AM 22.2720 113.7760 69° East 153 176 2,700 -540 Level FlightAware
02:17AM 22.2760 113.7900 73° East 155 178 2,300 -1,080 Descending FlightAware
02:18AM 22.2800 113.8030 72° East 150 173 2,100 -360 Descending FlightAware
02:18AM 22.2860 113.8220 71° East 151 174 2,000 -780 Descending FlightAware
02:19AM 22.2970 113.8550 70° East 131 151 1,100 -960 Descending FlightAware
02:19AM 22.3000 113.8660 74° East 130 150 900 -540 Descending FlightAware
02:20AM 22.3030 113.8740 68° East 130 150 800 -600 Descending FlightAware
02:20AM 22.3090 113.8920 70° East 134 154 500 -780 Descending FlightAware
02:20AM 22.3120 113.9030 74° East 132 152 200 -840 Descending FlightAware